Time;durP1;ratioP1;P1;durP2;ratioP2;P2;SDS_P1;SDS_P2;PMS_P1;PMS_P2;Temp;Humidity;BMP_temperature;BMP_pressure;BME280_temperature;BME280_humidity;BME280_pressure;Samples;Min_cycle;Max_cycle;Signal;HPM_P1;HPM_P2
2023/02/07 00:00:50;;;;;;;;;;;6.40;78.00;;;4.98;61.73;102872.16;5047779;28;19925;-76
2023/02/07 00:03:17;;;;;;;;;;;6.40;78.00;;;4.99;61.52;102871.19;5045461;28;19928;-76
2023/02/07 00:05:46;;;;;;;;;;;6.40;77.80;;;4.95;61.56;102880.31;5048233;28;19928;-76
2023/02/07 00:08:15;;;;;;;;;;;6.30;77.60;;;4.92;61.50;102891.09;5047087;28;19968;-76
2023/02/07 00:10:43;;;;;;;;;;;6.30;77.60;;;4.95;61.91;102890.88;5049596;28;20364;-76
2023/02/07 00:13:10;;;;;;;;;;;6.30;78.00;;;4.99;61.67;102897.63;5046402;28;19935;-76
2023/02/07 00:15:37;;;;;;;;;;;6.30;78.00;;;5.01;61.48;102893.06;5048710;28;19928;-76
2023/02/07 00:18:07;;;;;;;;;;;6.30;78.10;;;5.00;62.11;102888.75;5048774;28;19935;-76
2023/02/07 00:20:36;;;;;;;;;;;6.30;78.40;;;5.00;62.19;102896.69;5047451;28;19928;-76
2023/02/07 00:23:03;;;;;;;;;;;6.30;78.60;;;5.04;61.98;102898.13;5046671;28;19956;-76
2023/02/07 00:25:30;;;;;;;;;;;6.40;78.70;;;5.03;62.25;102904.41;5030419;28;19935;-76
2023/02/07 00:27:57;;;;;;;;;;;6.30;78.60;;;4.97;62.58;102894.25;5048792;28;20400;-76
2023/02/07 00:30:24;;;;;;;;;;;6.20;78.80;;;5.00;62.23;102896.69;5048254;28;19978;-76
2023/02/07 00:32:51;;;;;;;;;;;6.30;79.00;;;5.00;62.39;102899.31;5026198;28;19935;-76
2023/02/07 00:35:20;;;;;;;;;;;6.30;78.90;;;5.03;62.43;102895.63;5028963;28;19931;-76
2023/02/07 00:37:49;;;;;;;;;;;6.30;79.00;;;4.98;62.12;102895.97;5047579;28;19989;-76
2023/02/07 00:40:17;;;;;;;;;;;6.30;78.80;;;4.99;62.55;102900.28;5035221;28;20017;-76
2023/02/07 00:42:44;;;;;;;;;;;6.30;79.00;;;4.97;62.35;102896.91;5033826;28;19944;-76
2023/02/07 00:45:11;;;;;;;;;;;6.30;79.00;;;4.94;62.75;102889.22;5034994;28;19929;-76
2023/02/07 00:47:39;;;;;;;;;;;6.30;78.90;;;4.89;62.91;102886.91;5052766;28;19925;-76
2023/02/07 00:50:06;;;;;;;;;;;6.20;78.90;;;4.95;62.69;102900.63;5035205;28;19929;-75
2023/02/07 00:52:35;;;;;;;;;;;6.20;79.20;;;4.99;62.95;102891.50;5030683;28;19932;-75
2023/02/07 00:55:02;;;;;;;;;;;6.30;79.40;;;5.01;63.10;102884.28;5027816;28;19960;-76
2023/02/07 00:57:29;;;;;;;;;;;6.20;79.50;;;5.04;62.76;102884.91;5051772;28;19929;-76
2023/02/07 00:59:56;;;;;;;;;;;6.30;79.30;;;5.02;62.45;102878.88;5027211;28;19976;-76
2023/02/07 01:02:23;;;;;;;;;;;6.30;79.20;;;5.04;62.63;102892.00;5034258;28;19936;-76
2023/02/07 01:04:50;;;;;;;;;;;6.30;79.00;;;5.01;62.21;102890.44;5034330;28;19932;-76
2023/02/07 01:07:17;;;;;;;;;;;6.30;79.00;;;5.03;62.46;102888.53;5034097;28;19991;-76
2023/02/07 01:09:46;;;;;;;;;;;6.30;79.20;;;5.04;62.20;102897.31;5048072;28;20027;-76
2023/02/07 01:12:12;;;;;;;;;;;6.30;79.10;;;5.05;62.38;102896.34;5034993;28;20019;-76
2023/02/07 01:14:39;;;;;;;;;;;6.30;79.10;;;5.05;62.27;102891.03;5047421;28;19935;-76
2023/02/07 01:17:08;;;;;;;;;;;6.30;79.40;;;5.01;62.55;102900.16;5050220;28;19924;-76
2023/02/07 01:19:35;;;;;;;;;;;6.20;79.20;;;5.04;62.82;102902.59;5034394;28;19928;-76
2023/02/07 01:22:03;;;;;;;;;;;6.20;79.60;;;5.03;62.65;102900.91;5025458;28;20023;-76
2023/02/07 01:24:30;;;;;;;;;;;6.20;79.40;;;5.00;62.53;102904.63;5033910;28;19960;-76
2023/02/07 01:26:59;;;;;;;;;;;6.30;79.20;;;4.97;62.38;102891.59;5032080;28;19940;-76
2023/02/07 01:29:26;;;;;;;;;;;6.20;79.10;;;4.94;62.60;102902.44;5050444;28;19936;-76
2023/02/07 01:31:55;;;;;;;;;;;6.20;79.00;;;4.93;62.69;102876.09;5045135;28;19929;-76
2023/02/07 01:34:22;;;;;;;;;;;6.20;79.00;;;4.90;62.71;102887.75;5033502;28;19929;-76
2023/02/07 01:36:49;;;;;;;;;;;6.20;79.00;;;4.89;62.30;102883.44;5050716;28;20368;-76
2023/02/07 01:39:16;;;;;;;;;;;6.20;78.80;;;4.90;62.59;102882.47;5051960;28;19929;-76
2023/02/07 01:41:43;;;;;;;;;;;6.20;78.90;;;4.85;62.50;102887.25;5031926;28;19935;-76
2023/02/07 01:45:00;;;;;;;;;;;6.20;78.80;;;4.86;62.62;102883.63;5033244;28;19929;-76
2023/02/07 01:47:27;;;;;;;;;;;6.20;78.90;;;4.82;62.59;102882.19;5047518;28;19994;-76
2023/02/07 01:49:58;;;;;;;;;;;6.20;78.70;;;4.83;62.79;102891.78;5033924;28;19925;-76
2023/02/07 01:52:28;;;;;;;;;;;6.20;78.90;;;4.86;62.63;102892.41;5031991;28;19979;-76
2023/02/07 01:54:59;;;;;;;;;;;6.20;78.80;;;4.84;62.59;102893.50;5046078;28;20019;-76
2023/02/07 01:57:26;;;;;;;;;;;6.20;78.80;;;4.84;62.30;102898.78;5032883;28;20293;-76
2023/02/07 01:59:57;;;;;;;;;;;6.20;78.70;;;4.82;62.25;102900.69;5032692;28;19964;-76
2023/02/07 02:02:25;;;;;;;;;;;6.20;78.70;;;4.82;62.58;102903.31;5031107;28;19929;-76
2023/02/07 02:04:54;;;;;;;;;;;6.10;78.90;;;4.83;62.50;102902.38;5030979;28;19936;-76
2023/02/07 02:07:21;;;;;;;;;;;6.10;78.80;;;4.77;62.52;102902.81;5046296;28;19951;-76
2023/02/07 02:09:50;;;;;;;;;;;6.10;78.80;;;4.75;62.47;102908.22;5050846;28;19932;-76
2023/02/07 02:12:25;;;;;;;;;;;6.10;78.90;;;4.74;62.33;102901.25;5032377;28;19924;-76
2023/02/07 02:15:13;;;;;;;;;;;6.10;79.00;;;4.77;62.69;102898.38;5047627;28;19929;-76
2023/02/07 02:17:49;;;;;;;;;;;6.10;78.90;;;4.41;63.42;102901.91;5028620;28;20027;-76
2023/02/07 02:20:48;;;;;;;;;;;6.00;79.20;;;4.49;63.70;102898.72;5033536;28;19928;-76
2023/02/07 02:23:20;;;;;;;;;;;5.90;79.60;;;4.48;63.40;102899.66;5040556;28;19935;-76
2023/02/07 02:26:10;;;;;;;;;;;5.90;79.70;;;4.50;63.65;102905.69;5033695;28;20373;-76
2023/02/07 02:29:12;;;;;;;;;;;5.90;79.80;;;4.58;63.63;102905.97;5024088;28;19977;-76
2023/02/07 02:32:25;;;;;;;;;;;5.90;79.80;;;4.60;63.07;102893.50;4998874;28;19933;-76
2023/02/07 02:34:57;;;;;;;;;;;5.90;79.70;;;4.61;62.98;102903.13;5049317;28;19964;-76
2023/02/07 02:37:30;;;;;;;;;;;5.90;79.60;;;4.65;62.94;102909.88;5047536;28;19935;-76
2023/02/07 02:40:03;;;;;;;;;;;5.90;79.60;;;4.70;62.75;102912.19;5031305;28;20563;-76
2023/02/07 02:42:36;;;;;;;;;;;5.90;79.60;;;4.70;62.41;102907.72;5031761;28;20450;-75
2023/02/07 02:45:08;;;;;;;;;;;5.90;79.60;;;4.65;63.03;102915.16;5033287;28;19971;-75
2023/02/07 02:47:37;;;;;;;;;;;5.90;79.80;;;4.67;62.80;102917.66;5030427;28;20020;-76
2023/02/07 02:50:10;;;;;;;;;;;5.90;79.80;;;4.54;63.21;102907.13;5047422;28;19928;-76
2023/02/07 02:52:37;;;;;;;;;;;5.80;79.60;;;4.52;62.90;102894.06;5029462;28;20076;-76
2023/02/07 02:55:04;;;;;;;;;;;5.80;79.70;;;4.48;63.44;102895.22;5032001;28;20037;-76
2023/02/07 02:57:50;;;;;;;;;;;5.80;79.80;;;4.50;62.94;102892.50;5031760;28;20018;-76
2023/02/07 03:00:29;;;;;;;;;;;5.80;79.60;;;4.50;63.04;102884.56;5041408;28;19956;-76
2023/02/07 03:03:09;;;;;;;;;;;5.80;79.50;;;4.51;62.59;102881.78;5031571;28;19936;-76
2023/02/07 03:05:47;;;;;;;;;;;5.80;79.40;;;4.53;62.81;102879.88;5030980;28;20457;-76
2023/02/07 03:08:23;;;;;;;;;;;5.80;79.40;;;4.50;62.71;102869.56;5030597;28;19963;-76
2023/02/07 03:10:56;;;;;;;;;;;5.80;79.40;;;4.48;62.75;102867.97;5032701;28;20071;-76
2023/02/07 03:13:27;;;;;;;;;;;5.80;79.40;;;4.50;62.70;102885.41;5028098;28;20019;-76
2023/02/07 03:16:02;;;;;;;;;;;5.80;79.60;;;4.54;62.70;102886.00;5027526;28;20028;-76
2023/02/07 03:18:40;;;;;;;;;;;5.70;79.60;;;4.54;62.72;102881.59;5014641;28;19933;-76
2023/02/07 03:21:12;;;;;;;;;;;5.70;79.50;;;4.48;62.31;102889.94;5029441;28;20567;-76
2023/02/07 03:23:39;;;;;;;;;;;5.70;79.30;;;4.46;62.62;102891.84;5050037;28;19939;-76
2023/02/07 03:26:08;;;;;;;;;;;5.70;79.50;;;4.44;62.55;102884.97;5030571;28;19948;-75
2023/02/07 03:28:36;;;;;;;;;;;5.70;79.30;;;4.38;62.90;102889.75;5049461;28;19932;-76
2023/02/07 03:31:04;;;;;;;;;;;5.70;79.60;;;4.38;62.74;102892.41;5031807;28;19935;-76
2023/02/07 03:33:31;;;;;;;;;;;5.60;79.60;;;4.37;62.66;102890.72;5023098;28;19929;-76
2023/02/07 03:36:02;;;;;;;;;;;5.60;79.50;;;4.35;62.84;102890.00;5049153;28;19935;-76
2023/02/07 03:38:31;;;;;;;;;;;5.60;79.40;;;4.33;62.68;102893.69;5042339;28;19932;-76
2023/02/07 03:41:02;;;;;;;;;;;5.50;79.40;;;4.34;62.52;102895.38;5037423;28;19929;-76
2023/02/07 03:43:32;;;;;;;;;;;5.50;79.50;;;4.38;62.52;102892.41;5046100;28;19950;-76
2023/02/07 03:45:59;;;;;;;;;;;5.50;79.60;;;4.36;62.35;102898.75;5049771;28;20027;-76
2023/02/07 03:48:26;;;;;;;;;;;5.50;79.40;;;4.25;62.32;102906.63;5049595;28;20385;-76
2023/02/07 03:50:53;;;;;;;;;;;5.50;79.40;;;4.18;62.69;102903.56;5050200;28;19929;-75
2023/02/07 03:53:20;;;;;;;;;;;5.40;79.60;;;4.20;62.41;102908.72;5045334;28;20447;-76
2023/02/07 03:55:49;;;;;;;;;;;5.40;79.60;;;4.20;62.41;102906.94;5048722;28;19928;-76
2023/02/07 03:58:16;;;;;;;;;;;5.40;79.20;;;4.20;61.86;102903.44;5042270;28;19925;-76
2023/02/07 04:00:43;;;;;;;;;;;5.40;79.00;;;4.20;61.83;102906.06;5045898;28;20003;-76
2023/02/07 04:03:10;;;;;;;;;;;5.40;78.80;;;4.21;62.21;102902.50;5049856;28;19932;-76
2023/02/07 04:05:37;;;;;;;;;;;5.40;78.90;;;4.18;62.27;102906.19;5048774;28;19934;-76
2023/02/07 04:08:04;;;;;;;;;;;5.40;78.80;;;4.14;61.56;102897.63;5047567;28;19929;-76
2023/02/07 04:10:31;;;;;;;;;;;5.40;78.70;;;4.16;62.03;102902.00;5044616;28;19979;-76
2023/02/07 04:13:00;;;;;;;;;;;5.40;78.80;;;4.13;61.85;102895.13;5045901;28;20397;-76
2023/02/07 04:15:27;;;;;;;;;;;5.40;78.80;;;4.16;61.78;102899.34;5048414;28;20522;-76
2023/02/07 04:17:53;;;;;;;;;;;5.40;78.70;;;4.16;61.48;102896.72;5033678;28;19929;-76
2023/02/07 04:20:20;;;;;;;;;;;5.40;78.40;;;4.16;61.68;102891.44;5048886;28;19935;-76
2023/02/07 04:22:47;;;;;;;;;;;5.30;78.40;;;4.13;61.11;102887.19;5049420;28;19944;-75
2023/02/07 04:25:14;;;;;;;;;;;5.30;78.30;;;4.14;61.21;102887.06;5049643;28;20062;-76
2023/02/07 04:27:41;;;;;;;;;;;5.30;78.40;;;4.18;61.31;102878.94;5043669;28;20565;-75
2023/02/07 04:30:11;;;;;;;;;;;5.30;78.50;;;4.24;61.16;102875.84;5043185;28;19935;-76
2023/02/07 04:32:38;;;;;;;;;;;5.30;78.20;;;4.24;61.09;102876.69;5047912;28;19929;-76
2023/02/07 04:35:06;;;;;;;;;;;5.30;78.00;;;4.27;60.94;102867.72;5049420;28;20373;-76
2023/02/07 04:40:02;;;;;;;;;;;5.40;77.50;;;4.18;60.79;102865.75;5026664;28;20301;-74
2023/02/07 04:42:28;;;;;;;;;;;5.30;77.80;;;4.19;60.76;102862.16;5026020;28;19935;-74
2023/02/07 04:44:55;;;;;;;;;;;5.40;77.60;;;4.18;60.73;102863.94;5017911;28;19933;-74
2023/02/07 04:47:24;;;;;;;;;;;5.40;77.70;;;4.21;60.55;102853.16;5026594;28;19939;-74
2023/02/07 04:49:51;;;;;;;;;;;5.40;77.60;;;4.23;60.35;102866.25;5012500;28;19971;-74
2023/02/07 04:52:18;;;;;;;;;;;5.40;77.30;;;4.24;60.21;102862.66;5027588;28;20043;-75
2023/02/07 04:54:45;;;;;;;;;;;5.50;77.20;;;4.23;59.82;102850.41;5029217;28;20287;-74
2023/02/07 04:57:12;;;;;;;;;;;5.40;76.80;;;4.19;60.13;102851.56;5028609;28;20393;-75
2023/02/07 04:59:39;;;;;;;;;;;5.40;76.90;;;4.18;60.11;102847.25;5029215;28;19936;-74
2023/02/07 05:02:06;;;;;;;;;;;5.40;76.80;;;4.21;59.59;102852.34;5024684;28;19933;-74
2023/02/07 05:04:34;;;;;;;;;;;5.40;76.60;;;4.18;59.84;102847.25;5028781;28;20394;-75
2023/02/07 05:07:01;;;;;;;;;;;5.40;76.40;;;4.12;59.86;102852.03;5025151;28;20037;-75
2023/02/07 05:09:28;;;;;;;;;;;5.60;76.60;;;4.11;59.52;102853.00;5027693;28;19933;-75
2023/02/07 05:11:55;;;;;;;;;;;5.30;76.50;;;4.06;59.79;102856.91;5025966;28;20020;-78
2023/02/07 05:14:22;;;;;;;;;;;5.30;76.50;;;4.09;59.97;102862.78;5013536;28;19932;-78
2023/02/07 05:16:51;;;;;;;;;;;5.30;76.60;;;3.96;59.59;102864.66;5028275;28;19929;-75
2023/02/07 05:19:18;;;;;;;;;;;5.20;76.60;;;3.91;60.14;102865.94;5025865;28;19960;-76
2023/02/07 05:21:46;;;;;;;;;;;5.20;77.10;;;3.96;59.95;102872.56;5029442;28;20291;-76
2023/02/07 05:24:13;;;;;;;;;;;5.20;77.00;;;3.97;59.96;102863.69;5025776;28;19941;-75
2023/02/07 05:26:40;;;;;;;;;;;5.20;76.80;;;3.93;59.62;102859.56;5031336;28;19936;-75
2023/02/07 05:29:07;;;;;;;;;;;5.10;76.80;;;3.95;59.50;102862.09;5032252;28;19932;-76
2023/02/07 05:34:19;;;;;;;;;;;5.10;76.50;;;3.84;59.81;102870.78;5028586;28;19933;-77
2023/02/07 05:36:47;;;;;;;;;;;5.00;76.40;;;3.83;59.58;102863.81;5025836;28;19979;-76
2023/02/07 05:39:14;;;;;;;;;;;5.00;76.40;;;3.82;59.64;102873.53;5030677;28;20018;-75
2023/02/07 05:41:41;;;;;;;;;;;5.00;76.20;;;3.80;59.57;102871.94;5030195;28;20382;-76
2023/02/07 05:44:08;;;;;;;;;;;5.00;76.30;;;3.81;59.61;102881.56;5032075;28;19929;-75
2023/02/07 05:46:35;;;;;;;;;;;5.00;76.20;;;3.72;59.57;102877.78;5031271;28;19935;-76
2023/02/07 05:49:02;;;;;;;;;;;5.00;76.20;;;3.50;59.99;102880.19;5031972;28;19929;-75
2023/02/07 05:51:29;;;;;;;;;;;4.80;76.30;;;3.60;59.80;102899.72;5013208;28;19935;-76
2023/02/07 05:53:57;;;;;;;;;;;4.90;76.60;;;3.65;59.92;102897.59;5030962;28;20016;-76
2023/02/07 05:56:24;;;;;;;;;;;4.90;76.40;;;3.67;59.41;102905.44;5023650;28;19929;-76
2023/02/07 05:58:52;;;;;;;;;;;4.90;76.10;;;3.70;59.70;102905.19;5031231;28;19929;-76
2023/02/07 06:01:19;;;;;;;;;;;4.90;76.20;;;3.64;59.53;102908.28;5030886;28;19983;-76
2023/02/07 06:03:46;;;;;;;;;;;4.90;76.00;;;3.56;59.71;102904.38;5031295;28;19940;-76
2023/02/07 06:06:13;;;;;;;;;;;4.90;76.20;;;3.54;59.91;102900.97;5030610;28;19936;-77
2023/02/07 06:08:40;;;;;;;;;;;4.90;76.20;;;3.54;59.72;102900.13;5029113;28;19939;-76
2023/02/07 06:11:08;;;;;;;;;;;4.90;76.20;;;3.58;59.92;102906.91;5029484;28;19940;-76
2023/02/07 06:13:35;;;;;;;;;;;4.90;76.20;;;3.63;59.86;102911.88;5031409;28;19965;-75
2023/02/07 06:16:02;;;;;;;;;;;4.80;76.20;;;3.66;59.65;102919.56;5029955;28;19929;-76
2023/02/07 06:18:29;;;;;;;;;;;4.90;76.50;;;3.72;59.64;102909.44;5031210;28;19929;-76
2023/02/07 06:20:56;;;;;;;;;;;4.90;76.40;;;3.76;59.60;102904.81;5017117;28;19941;-76
2023/02/07 06:23:23;;;;;;;;;;;4.90;76.30;;;3.73;59.39;102899.72;5028703;28;19932;-76
2023/02/07 06:25:50;;;;;;;;;;;4.90;76.00;;;3.70;58.96;102915.75;5029367;28;19933;-76
2023/02/07 06:28:18;;;;;;;;;;;4.90;75.80;;;3.64;59.07;102905.63;5016574;28;19929;-76
2023/02/07 06:30:48;;;;;;;;;;;4.90;75.80;;;3.68;59.22;102920.31;5022816;28;19933;-76
2023/02/07 06:33:14;;;;;;;;;;;4.90;75.80;;;3.72;59.29;102919.16;5029039;28;19929;-76
2023/02/07 06:35:46;;;;;;;;;;;4.90;75.90;;;3.70;58.91;102926.31;5028499;28;19929;-77
2023/02/07 06:38:13;;;;;;;;;;;4.90;75.70;;;3.64;58.88;102929.38;5026699;28;19925;-76
2023/02/07 06:40:40;;;;;;;;;;;4.90;75.40;;;3.64;58.72;102926.75;5025428;28;19933;-76
2023/02/07 06:43:07;;;;;;;;;;;4.90;75.40;;;3.65;58.67;102924.00;5022887;28;19951;-77
2023/02/07 06:45:36;;;;;;;;;;;4.90;75.30;;;3.59;58.85;102930.53;5029866;28;20367;-76
2023/02/07 06:48:03;;;;;;;;;;;4.90;75.20;;;3.57;58.66;102921.88;5022617;28;19933;-78
2023/02/07 06:50:30;;;;;;;;;;;4.90;75.20;;;3.58;58.69;102930.66;5030169;28;19935;-77
2023/02/07 06:53:00;;;;;;;;;;;4.90;75.10;;;3.59;58.60;102919.97;5030385;28;19995;-78
2023/02/07 06:55:27;;;;;;;;;;;4.90;75.00;;;3.59;58.50;102921.78;5029437;28;19929;-78
2023/02/07 06:57:55;;;;;;;;;;;4.90;74.90;;;3.55;58.49;102923.78;5010249;28;20028;-78
2023/02/07 07:00:22;;;;;;;;;;;4.90;74.70;;;3.55;58.49;102928.22;5029919;28;19936;-77
2023/02/07 07:02:51;;;;;;;;;;;4.90;75.00;;;3.55;58.50;102933.47;5031162;28;20380;-78
2023/02/07 07:05:18;;;;;;;;;;;4.80;74.80;;;3.55;58.31;102944.03;5031301;28;20021;-78
2023/02/07 07:07:45;;;;;;;;;;;4.80;74.70;;;3.53;58.47;102943.31;5034299;28;20312;-78
2023/02/07 07:10:12;;;;;;;;;;;4.80;74.60;;;3.50;58.39;102943.50;5030526;28;19951;-77
2023/02/07 07:12:39;;;;;;;;;;;4.90;74.70;;;3.52;58.23;102946.91;5029606;28;19987;-78
2023/02/07 07:15:07;;;;;;;;;;;4.80;74.50;;;3.50;58.39;102954.91;5028729;28;20293;-78
2023/02/07 07:17:34;;;;;;;;;;;4.80;74.50;;;3.47;58.74;102949.00;5028460;28;20016;-77
2023/02/07 07:20:02;;;;;;;;;;;4.80;74.70;;;3.50;58.70;102957.53;5013659;28;19930;-77
2023/02/07 07:22:29;;;;;;;;;;;4.80;74.90;;;3.49;58.72;102955.00;5026299;28;20048;-78
2023/02/07 07:24:56;;;;;;;;;;;4.80;74.90;;;3.51;58.38;102956.59;5021842;28;19929;-78
2023/02/07 07:27:23;;;;;;;;;;;4.80;75.00;;;3.53;58.84;102956.50;5029155;28;19925;-77
2023/02/07 07:29:51;;;;;;;;;;;4.80;75.00;;;3.55;58.76;102957.22;5020392;28;19929;-78
2023/02/07 07:32:18;;;;;;;;;;;4.80;75.10;;;3.52;58.82;102960.94;5027630;28;19936;-77
2023/02/07 07:34:48;;;;;;;;;;;4.80;75.20;;;3.48;58.84;102951.53;5019936;28;19929;-77
2023/02/07 07:37:17;;;;;;;;;;;4.80;75.00;;;3.51;58.68;102959.22;5020897;28;20031;-77
2023/02/07 07:39:43;;;;;;;;;;;4.80;75.10;;;3.53;58.73;102965.25;5027474;28;19941;-77
2023/02/07 07:42:11;;;;;;;;;;;4.80;75.20;;;3.49;58.67;102955.84;5025542;28;19960;-76
2023/02/07 07:44:53;;;;;;;;;;;4.80;75.10;;;3.46;58.86;102949.94;5011895;28;20325;-77
2023/02/07 07:47:20;;;;;;;;;;;4.90;75.20;;;3.46;58.71;102960.47;5023066;28;19951;-78
2023/02/07 07:49:49;;;;;;;;;;;4.80;75.10;;;3.43;58.86;102971.25;5026471;28;20731;-78
2023/02/07 07:52:20;;;;;;;;;;;4.80;75.30;;;3.44;59.10;102963.22;5012484;28;19964;-78
2023/02/07 07:54:50;;;;;;;;;;;4.70;75.40;;;3.42;59.22;102970.41;5014740;28;19968;-77
2023/02/07 07:57:17;;;;;;;;;;;4.70;75.40;;;3.46;59.24;102974.50;5029494;28;19933;-78
2023/02/07 07:59:44;;;;;;;;;;;4.70;75.50;;;3.51;59.04;102975.06;5021053;28;19930;-77
2023/02/07 08:02:12;;;;;;;;;;;4.80;75.50;;;3.49;58.94;102970.84;5018965;28;20028;-78
2023/02/07 08:04:39;;;;;;;;;;;4.80;75.50;;;3.45;59.46;102970.19;5029658;28;19925;-77
2023/02/07 08:07:06;;;;;;;;;;;4.80;75.60;;;3.46;59.30;102969.22;5027794;28;19929;-77
2023/02/07 08:09:34;;;;;;;;;;;4.80;75.80;;;3.50;59.43;102970.72;5018720;28;19933;-77
2023/02/07 08:12:01;;;;;;;;;;;4.80;76.00;;;3.56;59.70;102977.38;5020745;28;19939;-79
2023/02/07 08:14:29;;;;;;;;;;;4.80;76.20;;;3.57;59.63;102972.03;5029490;28;19952;-77
2023/02/07 08:16:56;;;;;;;;;;;4.80;76.20;;;3.54;59.78;102974.84;5029182;28;20405;-78
2023/02/07 08:19:23;;;;;;;;;;;4.80;76.20;;;3.59;59.97;102969.28;5025361;28;20381;-78
2023/02/07 08:21:50;;;;;;;;;;;4.80;76.50;;;3.64;59.84;102975.06;5012801;28;20312;-77
2023/02/07 08:24:17;;;;;;;;;;;4.80;76.40;;;3.65;59.74;102965.38;5016365;28;20049;-78
2023/02/07 08:26:45;;;;;;;;;;;4.80;76.40;;;3.65;59.96;102965.38;5028692;28;19929;-77
2023/02/07 08:29:12;;;;;;;;;;;4.80;76.40;;;3.60;60.27;102963.88;5028448;28;20289;-78
2023/02/07 08:31:39;;;;;;;;;;;4.80;76.90;;;3.55;60.53;102968.63;5029649;28;19925;-77
2023/02/07 08:34:06;;;;;;;;;;;4.80;77.20;;;3.42;60.58;102970.41;5024814;28;19939;-78
2023/02/07 08:36:33;;;;;;;;;;;4.70;77.20;;;3.45;61.06;102972.81;5023642;28;19961;-78
2023/02/07 08:39:00;;;;;;;;;;;4.70;77.50;;;3.49;61.06;102978.75;5025399;28;19929;-77
2023/02/07 08:41:27;;;;;;;;;;;4.70;77.80;;;3.52;60.89;102982.03;5026521;28;20012;-77
2023/02/07 08:43:56;;;;;;;;;;;4.70;77.80;;;3.56;61.20;102982.66;5028788;28;19965;-77
2023/02/07 08:46:23;;;;;;;;;;;4.80;77.80;;;3.58;61.14;102983.41;5023920;28;19929;-77
2023/02/07 08:48:49;;;;;;;;;;;4.80;77.80;;;3.63;61.14;102972.56;5019938;28;21800;-77
2023/02/07 08:51:17;;;;;;;;;;;4.80;77.80;;;3.63;61.05;102972.56;5021234;28;19929;-77
2023/02/07 08:53:44;;;;;;;;;;;4.80;78.00;;;3.67;61.10;102972.25;5027498;28;19929;-77
2023/02/07 08:56:11;;;;;;;;;;;4.90;78.20;;;3.69;61.38;102975.59;5026051;28;19929;-77
2023/02/07 08:58:39;;;;;;;;;;;4.90;78.10;;;3.71;61.13;102983.41;5026886;28;20535;-77
2023/02/07 09:01:09;;;;;;;;;;;4.90;78.20;;;3.68;61.03;102975.72;5026835;28;19965;-77
2023/02/07 09:03:36;;;;;;;;;;;4.90;78.20;;;3.72;61.24;102967.50;5028038;28;19928;-78
2023/02/07 09:06:04;;;;;;;;;;;5.00;78.20;;;3.73;61.43;102966.53;5031529;28;19935;-78
2023/02/07 09:08:31;;;;;;;;;;;4.80;78.00;;;3.72;61.23;102967.50;5027961;28;19929;-78
2023/02/07 09:10:58;;;;;;;;;;;4.90;78.40;;;3.74;61.64;102970.03;5029643;28;20366;-77
2023/02/07 09:13:25;;;;;;;;;;;4.80;78.40;;;3.73;61.73;102979.72;5027928;28;19949;-78
2023/02/07 09:15:55;;;;;;;;;;;4.90;78.70;;;3.48;61.37;102983.19;5012573;28;19929;-77
2023/02/07 09:18:24;;;;;;;;;;;4.80;78.10;;;3.61;61.90;102983.19;5027963;28;20020;-78
2023/02/07 09:20:52;;;;;;;;;;;4.80;78.40;;;3.71;61.34;102984.28;5025778;28;19929;-77
2023/02/07 09:23:19;;;;;;;;;;;4.90;78.40;;;3.74;61.26;102985.84;5030951;28;20441;-78
2023/02/07 09:25:48;;;;;;;;;;;4.90;78.30;;;3.77;61.59;102981.22;5013472;28;20019;-78
2023/02/07 09:28:15;;;;;;;;;;;5.00;78.40;;;3.82;61.26;102973.84;5014079;28;19971;-77
2023/02/07 09:30:47;;;;;;;;;;;5.00;78.30;;;3.81;60.96;102968.66;5023310;28;19933;-77
2023/02/07 09:33:15;;;;;;;;;;;5.00;77.90;;;3.76;61.11;102961.06;5031995;28;19929;-78
2023/02/07 09:35:45;;;;;;;;;;;4.90;77.90;;;3.79;61.51;102962.63;5029903;28;19965;-81
2023/02/07 09:38:14;;;;;;;;;;;4.90;78.40;;;3.81;61.37;102958.09;5024440;28;19935;-79
2023/02/07 09:40:44;;;;;;;;;;;5.00;78.20;;;3.83;61.35;102956.19;5024927;28;19926;-79
2023/02/07 09:43:18;;;;;;;;;;;5.00;78.20;;;3.84;61.22;102958.72;5026102;28;20297;-80
2023/02/07 09:45:48;;;;;;;;;;;5.00;78.20;;;3.86;61.08;102953.34;5032365;28;20028;-80
2023/02/07 09:51:37;;;;;;;;;;;5.00;78.10;;;3.91;61.54;102967.09;4944479;28;19926;-79
2023/02/07 09:54:07;;;;;;;;;;;5.10;78.40;;;3.95;61.39;102965.06;5026545;28;19984;-79
2023/02/07 09:56:35;;;;;;;;;;;5.10;78.40;;;3.91;60.57;102968.88;5031181;28;20036;-80
2023/02/07 09:59:06;;;;;;;;;;;5.10;77.40;;;3.85;60.69;102980.69;5024877;28;19929;-79
2023/02/07 10:01:36;;;;;;;;;;;5.00;77.60;;;3.89;61.03;102982.16;5022731;28;19968;-79
2023/02/07 10:04:21;;;;;;;;;;;5.00;77.80;;;3.87;60.88;102984.91;5029842;28;20022;-79
2023/02/07 10:06:52;;;;;;;;;;;5.00;77.60;;;3.95;60.73;102978.25;5030623;28;20484;-77
2023/02/07 10:09:22;;;;;;;;;;;5.00;77.60;;;4.00;60.77;102968.22;5028783;28;19933;-77
2023/02/07 10:11:54;;;;;;;;;;;5.10;77.80;;;3.98;60.26;102968.34;5032158;28;19984;-77
2023/02/07 10:14:31;;;;;;;;;;;5.10;77.20;;;3.99;60.77;102964.75;5030476;28;19925;-77
2023/02/07 10:17:10;;;;;;;;;;;5.10;77.60;;;4.00;60.36;102953.25;5011757;28;20310;-77
2023/02/07 10:19:47;;;;;;;;;;;5.20;77.60;;;3.98;59.99;102959.56;5025735;28;19933;-77
2023/02/07 10:22:24;;;;;;;;;;;5.10;77.10;;;3.80;59.04;102964.31;5030398;28;19968;-77
2023/02/07 10:25:24;;;;;;;;;;;5.10;75.70;;;3.83;59.49;102964.13;5031815;28;19925;-77
2023/02/07 10:28:01;;;;;;;;;;;5.10;76.50;;;3.87;59.73;102955.88;5027618;28;20365;-77
2023/02/07 10:30:32;;;;;;;;;;;5.10;76.40;;;3.93;59.29;102967.81;5022443;28;20020;-78
2023/02/07 10:33:04;;;;;;;;;;;5.10;76.20;;;3.96;59.71;102962.31;5023952;28;19937;-77
2023/02/07 10:35:34;;;;;;;;;;;5.10;76.40;;;4.00;59.54;102965.56;5006630;28;20024;-77
2023/02/07 10:40:39;;;;;;;;;;;5.10;75.80;;;3.99;59.23;102966.53;5040756;28;21750;-79
2023/02/07 10:43:14;;;;;;;;;;;5.20;76.40;;;4.02;59.00;102961.91;5040136;28;19924;-79
2023/02/07 10:45:48;;;;;;;;;;;5.20;76.00;;;4.03;58.64;102958.28;5048244;28;19971;-78
2023/02/07 10:48:26;;;;;;;;;;;5.20;75.20;;;4.08;59.30;102957.97;5045767;28;19928;-78
2023/02/07 10:51:03;;;;;;;;;;;5.20;76.20;;;4.12;59.25;102957.66;5049014;28;19960;-79
2023/02/07 10:53:45;;;;;;;;;;;5.30;76.30;;;4.16;59.17;102965.38;5048517;28;19928;-79
2023/02/07 10:56:33;;;;;;;;;;;5.20;76.10;;;4.14;59.31;102958.38;5045489;28;20062;-79
2023/02/07 10:59:46;;;;;;;;;;;5.30;76.30;;;4.16;58.96;102949.53;5044047;28;19929;-79
2023/02/07 11:13:47;;;;;;;;;;;5.20;73.90;;;4.07;58.33;102957.13;5047839;28;19935;-79
2023/02/07 11:16:17;;;;;;;;;;;5.30;75.00;;;3.95;57.03;102949.22;5035584;28;19925;-79
2023/02/07 11:18:45;;;;;;;;;;;5.20;73.50;;;3.92;57.18;102960.84;5045880;28;19951;-79
2023/02/07 11:21:23;;;;;;;;;;;5.20;73.90;;;3.95;57.17;102963.25;5039596;28;19937;-79
2023/02/07 11:23:51;;;;;;;;;;;5.30;74.40;;;3.80;57.09;102957.25;5031501;28;19933;-79
2023/02/07 11:26:20;;;;;;;;;;;5.20;73.50;;;3.97;58.20;102966.66;5041046;28;19982;-79
2023/02/07 11:28:51;;;;;;;;;;;5.20;74.60;;;4.08;58.53;102963.25;5047853;28;19925;-79
2023/02/07 11:31:19;;;;;;;;;;;5.30;75.20;;;4.13;58.45;102961.13;5045103;28;19933;-78
2023/02/07 11:33:47;;;;;;;;;;;5.30;75.10;;;4.17;57.20;102954.69;5047075;28;19928;-79
2023/02/07 11:36:29;;;;;;;;;;;5.30;73.50;;;4.20;57.69;102956.25;5047937;28;19928;-79
2023/02/07 11:38:58;;;;;;;;;;;5.40;74.30;;;4.18;57.02;102952.91;5040777;28;19935;-79
2023/02/07 11:41:27;;;;;;;;;;;5.40;73.90;;;4.21;57.28;102942.13;5049607;28;20392;-79
2023/02/07 11:43:58;;;;;;;;;;;5.50;73.70;;;4.22;56.81;102946.44;5047942;28;19929;-79
2023/02/07 11:46:33;;;;;;;;;;;5.40;73.30;;;4.20;56.40;102950.97;5023901;28;19926;-78
2023/02/07 11:49:00;;;;;;;;;;;5.40;72.50;;;4.19;56.22;102944.00;5036992;28;19933;-79
2023/02/07 11:51:31;;;;;;;;;;;5.40;72.70;;;4.10;55.63;102941.09;5045065;28;19935;-79
2023/02/07 11:54:01;;;;;;;;;;;5.40;72.30;;;4.17;55.17;102927.44;5047559;28;19933;-83
2023/02/07 11:56:32;;;;;;;;;;;5.40;71.30;;;4.22;55.97;102935.88;5047310;28;19928;-82
2023/02/07 11:59:03;;;;;;;;;;;5.40;72.70;;;4.24;55.12;102939.25;5044418;28;19939;-80